JST518 YMML-YMLT
Flight info
| Callsign | JST518 |
|---|---|
| Flight time | 0h 49m |
| Altitude | 33000 |
| Route | SUNTI4/34 SUNTI H169 IRSOM W105 LT |
| Aircraft | A321/M-SDE3FGHIRWY/LB1 |
Departure
| Time | 2026-04-23 01:26 |
|---|---|
| Airport | Melbourne Airport (YMML) |
Arrival
| Time | 2026-04-23 02:15 |
|---|---|
| Airport | Launceston Airport (YMLT) |
| Time | Latitude | Longitude | Altitude | Speed | Heading |
|---|---|---|---|---|---|
| 2026-04-23 01:12 | -37.66725 | 144.84669 | 399 ft | 33 kts | 172° |
| 2026-04-23 01:16 | -37.66718 | 144.84668 | 415 ft | 9 kts | 171° |
| 2026-04-23 01:16 | -37.66692 | 144.84661 | 398 ft | 10 kts | 162° |
| 2026-04-23 01:16 | -37.66667 | 144.84648 | 399 ft | 10 kts | 143° |
| 2026-04-23 01:16 | -37.66652 | 144.84625 | 397 ft | 10 kts | 93° |
| 2026-04-23 01:17 | -37.66652 | 144.84618 | 396 ft | 35 kts | 82° |
| 2026-04-23 01:17 | -37.66652 | 144.84617 | 396 ft | 0 kts | 82° |
| 2026-04-23 01:19 | -37.66651 | 144.84620 | 396 ft | 1 kts | 82° |
| 2026-04-23 01:20 | -37.66649 | 144.84637 | 398 ft | 3 kts | 82° |
| 2026-04-23 01:20 | -37.66645 | 144.84672 | 401 ft | 7 kts | 82° |
| 2026-04-23 01:20 | -37.66635 | 144.84743 | 402 ft | 8 kts | 69° |
| 2026-04-23 01:20 | -37.66595 | 144.84793 | 402 ft | 9 kts | 27° |
| 2026-04-23 01:21 | -37.66526 | 144.84792 | 406 ft | 11 kts | 348° |
| 2026-04-23 01:21 | -37.66482 | 144.84714 | 408 ft | 15 kts | 270° |
| 2026-04-23 01:21 | -37.66496 | 144.84570 | 406 ft | 18 kts | 262° |
| 2026-04-23 01:21 | -37.66515 | 144.84408 | 404 ft | 18 kts | 261° |
| 2026-04-23 01:22 | -37.66534 | 144.84257 | 403 ft | 14 kts | 261° |
| 2026-04-23 01:22 | -37.66544 | 144.84131 | 403 ft | 14 kts | 283° |
| 2026-04-23 01:22 | -37.66519 | 144.84010 | 404 ft | 15 kts | 268° |
| 2026-04-23 01:22 | -37.66600 | 144.83947 | 399 ft | 18 kts | 174° |
| 2026-04-23 01:23 | -37.66739 | 144.83973 | 394 ft | 22 kts | 170° |
| 2026-04-23 01:23 | -37.66905 | 144.84006 | 388 ft | 26 kts | 172° |
| 2026-04-23 01:23 | -37.67093 | 144.84039 | 382 ft | 25 kts | 172° |
| 2026-04-23 01:23 | -37.67241 | 144.84066 | 378 ft | 20 kts | 172° |
| 2026-04-23 01:24 | -37.67391 | 144.84096 | 374 ft | 23 kts | 171° |
| 2026-04-23 01:24 | -37.67546 | 144.84125 | 371 ft | 20 kts | 172° |
| 2026-04-23 01:24 | -37.67696 | 144.84152 | 371 ft | 23 kts | 172° |
| 2026-04-23 01:24 | -37.67828 | 144.84169 | 362 ft | 16 kts | 189° |
| 2026-04-23 01:25 | -37.67879 | 144.84047 | 359 ft | 15 kts | 262° |
| 2026-04-23 01:25 | -37.67869 | 144.83972 | 362 ft | 5 kts | 332° |
| 2026-04-23 01:25 | -37.67847 | 144.83965 | 360 ft | 11 kts | 348° |
| 2026-04-23 01:25 | -37.67547 | 144.83909 | 368 ft | 81 kts | 351° |
| 2026-04-23 01:26 | -37.66775 | 144.83765 | 399 ft | 140 kts | 352° |
| 2026-04-23 01:26 | -37.65814 | 144.83588 | 1069 ft | 137 kts | 352° |
| 2026-04-23 01:26 | -37.64868 | 144.83407 | 1776 ft | 138 kts | 350° |
| 2026-04-23 01:26 | -37.63893 | 144.83218 | 2446 ft | 150 kts | 350° |
| 2026-04-23 01:27 | -37.62784 | 144.83001 | 2941 ft | 174 kts | 350° |
| 2026-04-23 01:27 | -37.61517 | 144.82756 | 3524 ft | 195 kts | 351° |
| 2026-04-23 01:27 | -37.60092 | 144.82484 | 3963 ft | 220 kts | 353° |
| 2026-04-23 01:27 | -37.58495 | 144.82665 | 4534 ft | 245 kts | 21° |
| 2026-04-23 01:28 | -37.56887 | 144.83602 | 5308 ft | 262 kts | 27° |
| 2026-04-23 01:28 | -37.55788 | 144.84280 | 5973 ft | 268 kts | 29° |
| 2026-04-23 01:28 | -37.54094 | 144.85330 | 7027 ft | 275 kts | 29° |
| 2026-04-23 01:28 | -37.52362 | 144.86403 | 8068 ft | 280 kts | 28° |
| 2026-04-23 01:29 | -37.50599 | 144.87494 | 8829 ft | 285 kts | 28° |
| 2026-04-23 01:29 | -37.48812 | 144.88596 | 9665 ft | 287 kts | 28° |
| 2026-04-23 01:29 | -37.47159 | 144.89988 | 10440 ft | 287 kts | 50° |
| 2026-04-23 01:29 | -37.46006 | 144.92928 | 11319 ft | 289 kts | 83° |
| 2026-04-23 01:30 | -37.45990 | 144.94636 | 11776 ft | 291 kts | 99° |
| 2026-04-23 01:30 | -37.46683 | 144.97022 | 12438 ft | 294 kts | 124° |
| 2026-04-23 01:30 | -37.48132 | 144.98853 | 13002 ft | 303 kts | 148° |
| 2026-04-23 01:30 | -37.50169 | 144.99742 | 13196 ft | 324 kts | 174° |
| 2026-04-23 01:31 | -37.52496 | 144.99944 | 13336 ft | 346 kts | 178° |
| 2026-04-23 01:31 | -37.54957 | 145.00121 | 13697 ft | 360 kts | 177° |
| 2026-04-23 01:31 | -37.57445 | 145.00300 | 14300 ft | 366 kts | 178° |
| 2026-04-23 01:31 | -37.59996 | 145.00489 | 14938 ft | 369 kts | 178° |
| 2026-04-23 01:32 | -37.62563 | 145.00692 | 15655 ft | 370 kts | 177° |
| 2026-04-23 01:32 | -37.65142 | 145.00905 | 16284 ft | 374 kts | 176° |
| 2026-04-23 01:32 | -37.67741 | 145.01126 | 16984 ft | 376 kts | 176° |
| 2026-04-23 01:32 | -37.70358 | 145.01351 | 17665 ft | 378 kts | 176° |
| 2026-04-23 01:33 | -37.72997 | 145.01353 | 18323 ft | 381 kts | 185° |
| 2026-04-23 01:33 | -37.75638 | 145.00968 | 18944 ft | 383 kts | 186° |
| 2026-04-23 01:33 | -37.78290 | 145.00569 | 19507 ft | 386 kts | 186° |
| 2026-04-23 01:33 | -37.80968 | 145.00167 | 20089 ft | 388 kts | 187° |
| 2026-04-23 01:34 | -37.83657 | 144.99764 | 20685 ft | 391 kts | 187° |
| 2026-04-23 01:34 | -37.86367 | 144.99359 | 21263 ft | 393 kts | 187° |
| 2026-04-23 01:34 | -37.89096 | 144.98953 | 21822 ft | 396 kts | 186° |
| 2026-04-23 01:34 | -37.91844 | 144.98543 | 22371 ft | 399 kts | 187° |
| 2026-04-23 01:35 | -37.94612 | 144.98138 | 22907 ft | 401 kts | 185° |
| 2026-04-23 01:35 | -37.97411 | 144.98144 | 23414 ft | 404 kts | 175° |
| 2026-04-23 01:35 | -38.00184 | 144.98789 | 23916 ft | 408 kts | 165° |
| 2026-04-23 01:35 | -38.02879 | 144.99956 | 24340 ft | 411 kts | 161° |
| 2026-04-23 01:36 | -38.05577 | 145.01173 | 24771 ft | 413 kts | 161° |
| 2026-04-23 01:36 | -38.08290 | 145.02385 | 25209 ft | 414 kts | 161° |
| 2026-04-23 01:36 | -38.11016 | 145.03599 | 25638 ft | 416 kts | 162° |
| 2026-04-23 01:36 | -38.13748 | 145.04814 | 26062 ft | 418 kts | 162° |
| 2026-04-23 01:37 | -38.16499 | 145.06036 | 26486 ft | 420 kts | 162° |
| 2026-04-23 01:37 | -38.19261 | 145.07261 | 26900 ft | 421 kts | 162° |
| 2026-04-23 01:37 | -38.21999 | 145.08474 | 27308 ft | 423 kts | 162° |
| 2026-04-23 01:37 | -38.24788 | 145.09710 | 27702 ft | 425 kts | 162° |
| 2026-04-23 01:38 | -38.27591 | 145.10956 | 28099 ft | 427 kts | 162° |
| 2026-04-23 01:38 | -38.30403 | 145.12214 | 28485 ft | 429 kts | 162° |
| 2026-04-23 01:38 | -38.33227 | 145.13481 | 28868 ft | 431 kts | 162° |
| 2026-04-23 01:38 | -38.36063 | 145.14753 | 29250 ft | 433 kts | 162° |
| 2026-04-23 01:39 | -38.38907 | 145.16025 | 29632 ft | 435 kts | 162° |
| 2026-04-23 01:39 | -38.41775 | 145.17311 | 30022 ft | 437 kts | 162° |
| 2026-04-23 01:39 | -38.44648 | 145.18601 | 30397 ft | 439 kts | 162° |
| 2026-04-23 01:39 | -38.47524 | 145.19895 | 30834 ft | 437 kts | 162° |
| 2026-04-23 01:40 | -38.50387 | 145.21182 | 31290 ft | 435 kts | 162° |
| 2026-04-23 01:40 | -38.53240 | 145.22455 | 31743 ft | 433 kts | 162° |
| 2026-04-23 01:40 | -38.56076 | 145.23703 | 32204 ft | 431 kts | 162° |
| 2026-04-23 01:40 | -38.58907 | 145.24940 | 32660 ft | 429 kts | 163° |
| 2026-04-23 01:41 | -38.61725 | 145.26169 | 33114 ft | 427 kts | 163° |
| 2026-04-23 01:41 | -38.64533 | 145.27399 | 33371 ft | 426 kts | 162° |
| 2026-04-23 01:41 | -38.70053 | 145.29829 | 33420 ft | 416 kts | 162° |
| 2026-04-23 01:42 | -38.75511 | 145.32249 | 33416 ft | 414 kts | 162° |
| 2026-04-23 01:42 | -38.80757 | 145.35324 | 33418 ft | 416 kts | 155° |
| 2026-04-23 01:43 | -38.85921 | 145.38681 | 33420 ft | 416 kts | 155° |
| 2026-04-23 01:43 | -38.91073 | 145.42070 | 33424 ft | 416 kts | 155° |
| 2026-04-23 01:44 | -38.96237 | 145.45448 | 33422 ft | 417 kts | 155° |
| 2026-04-23 01:44 | -39.01410 | 145.48819 | 33424 ft | 417 kts | 155° |
| 2026-04-23 01:45 | -39.06580 | 145.52204 | 33427 ft | 417 kts | 155° |
| 2026-04-23 01:45 | -39.11753 | 145.55584 | 33441 ft | 417 kts | 155° |
| 2026-04-23 01:46 | -39.16918 | 145.58978 | 33439 ft | 416 kts | 155° |
| 2026-04-23 01:46 | -39.22075 | 145.62368 | 33435 ft | 416 kts | 155° |
| 2026-04-23 01:47 | -39.27237 | 145.65765 | 33431 ft | 417 kts | 155° |
| 2026-04-23 01:47 | -39.32364 | 145.69156 | 33431 ft | 417 kts | 155° |
| 2026-04-23 01:48 | -39.37527 | 145.72575 | 33437 ft | 417 kts | 155° |
| 2026-04-23 01:48 | -39.42691 | 145.75993 | 33436 ft | 417 kts | 155° |
| 2026-04-23 01:49 | -39.47849 | 145.79408 | 33440 ft | 417 kts | 155° |
| 2026-04-23 01:49 | -39.53007 | 145.82838 | 33437 ft | 417 kts | 155° |
| 2026-04-23 01:50 | -39.58163 | 145.86268 | 33440 ft | 416 kts | 155° |
| 2026-04-23 01:50 | -39.63318 | 145.89702 | 33440 ft | 416 kts | 155° |
| 2026-04-23 01:51 | -39.68472 | 145.93140 | 33437 ft | 417 kts | 155° |
| 2026-04-23 01:51 | -39.73622 | 145.96586 | 33457 ft | 417 kts | 155° |
| 2026-04-23 01:52 | -39.78776 | 146.00034 | 33447 ft | 416 kts | 155° |
| 2026-04-23 01:52 | -39.83926 | 146.03486 | 33438 ft | 416 kts | 155° |
| 2026-04-23 01:53 | -39.89068 | 146.06953 | 33353 ft | 417 kts | 155° |
| 2026-04-23 01:53 | -39.91640 | 146.08688 | 33085 ft | 416 kts | 155° |
| 2026-04-23 01:53 | -39.94212 | 146.10419 | 32963 ft | 416 kts | 155° |
| 2026-04-23 01:54 | -39.96786 | 146.12150 | 32827 ft | 416 kts | 155° |
| 2026-04-23 01:54 | -39.99391 | 146.13899 | 32707 ft | 427 kts | 155° |
| 2026-04-23 01:54 | -40.02067 | 146.15703 | 32576 ft | 437 kts | 155° |
| 2026-04-23 01:54 | -40.04776 | 146.17533 | 32447 ft | 441 kts | 155° |
| 2026-04-23 01:55 | -40.07514 | 146.19381 | 32320 ft | 443 kts | 155° |
| 2026-04-23 01:55 | -40.10245 | 146.21232 | 32197 ft | 444 kts | 155° |
| 2026-04-23 01:55 | -40.12951 | 146.23069 | 32048 ft | 445 kts | 155° |
| 2026-04-23 01:55 | -40.15708 | 146.24940 | 31370 ft | 449 kts | 155° |
| 2026-04-23 01:56 | -40.18480 | 146.26823 | 30702 ft | 449 kts | 154° |
| 2026-04-23 01:56 | -40.21257 | 146.28711 | 30066 ft | 451 kts | 154° |
| 2026-04-23 01:56 | -40.24051 | 146.30611 | 29466 ft | 454 kts | 154° |
| 2026-04-23 01:56 | -40.26860 | 146.32522 | 28858 ft | 456 kts | 154° |
| 2026-04-23 01:57 | -40.29686 | 146.34444 | 28245 ft | 459 kts | 154° |
| 2026-04-23 01:57 | -40.32526 | 146.36382 | 27626 ft | 461 kts | 154° |
| 2026-04-23 01:57 | -40.35382 | 146.38334 | 26996 ft | 464 kts | 154° |
| 2026-04-23 01:57 | -40.38253 | 146.40303 | 26371 ft | 467 kts | 154° |
| 2026-04-23 01:58 | -40.41144 | 146.42284 | 25742 ft | 470 kts | 154° |
| 2026-04-23 01:58 | -40.44034 | 146.44260 | 25116 ft | 468 kts | 154° |
| 2026-04-23 01:58 | -40.46917 | 146.46233 | 24487 ft | 466 kts | 154° |
| 2026-04-23 01:58 | -40.49785 | 146.48199 | 23852 ft | 464 kts | 154° |
| 2026-04-23 01:59 | -40.52634 | 146.50155 | 23205 ft | 460 kts | 154° |
| 2026-04-23 01:59 | -40.55462 | 146.52104 | 22635 ft | 457 kts | 154° |
| 2026-04-23 01:59 | -40.58271 | 146.54040 | 22053 ft | 454 kts | 154° |
| 2026-04-23 01:59 | -40.61060 | 146.55963 | 21510 ft | 451 kts | 154° |
| 2026-04-23 02:00 | -40.63830 | 146.57871 | 20960 ft | 448 kts | 154° |
| 2026-04-23 02:00 | -40.66584 | 146.59768 | 20422 ft | 445 kts | 154° |
| 2026-04-23 02:00 | -40.69317 | 146.61654 | 19880 ft | 442 kts | 154° |
| 2026-04-23 02:00 | -40.72034 | 146.63534 | 19334 ft | 440 kts | 154° |
| 2026-04-23 02:01 | -40.74735 | 146.65406 | 18775 ft | 437 kts | 154° |
| 2026-04-23 02:01 | -40.77418 | 146.67265 | 18159 ft | 434 kts | 154° |
| 2026-04-23 02:01 | -40.80087 | 146.69113 | 17585 ft | 432 kts | 154° |
| 2026-04-23 02:01 | -40.82739 | 146.70950 | 17008 ft | 429 kts | 154° |
| 2026-04-23 02:02 | -40.85371 | 146.72777 | 16410 ft | 426 kts | 154° |
| 2026-04-23 02:02 | -40.87990 | 146.74599 | 15825 ft | 424 kts | 154° |
| 2026-04-23 02:02 | -40.90584 | 146.76406 | 15230 ft | 421 kts | 154° |
| 2026-04-23 02:02 | -40.93172 | 146.78212 | 14635 ft | 419 kts | 154° |
| 2026-04-23 02:03 | -40.95749 | 146.80008 | 14015 ft | 417 kts | 154° |
| 2026-04-23 02:03 | -40.98301 | 146.81790 | 13400 ft | 414 kts | 154° |
| 2026-04-23 02:03 | -41.00811 | 146.83546 | 12812 ft | 412 kts | 154° |
| 2026-04-23 02:03 | -41.03337 | 146.85317 | 12214 ft | 410 kts | 154° |
| 2026-04-23 02:04 | -41.05847 | 146.87075 | 11612 ft | 407 kts | 154° |
| 2026-04-23 02:04 | -41.08377 | 146.88845 | 11048 ft | 405 kts | 154° |
| 2026-04-23 02:04 | -41.10863 | 146.90582 | 10918 ft | 405 kts | 154° |
| 2026-04-23 02:04 | -41.13360 | 146.92325 | 10802 ft | 406 kts | 154° |
| 2026-04-23 02:05 | -41.15831 | 146.94056 | 10291 ft | 406 kts | 154° |
| 2026-04-23 02:05 | -41.18312 | 146.95800 | 10034 ft | 403 kts | 154° |
| 2026-04-23 02:05 | -41.20792 | 146.97543 | 9479 ft | 405 kts | 154° |
| 2026-04-23 02:05 | -41.23241 | 146.99266 | 9192 ft | 387 kts | 154° |
| 2026-04-23 02:06 | -41.25507 | 147.00870 | 8882 ft | 353 kts | 154° |
| 2026-04-23 02:06 | -41.27582 | 147.02344 | 8614 ft | 323 kts | 155° |
| 2026-04-23 02:06 | -41.29505 | 147.03710 | 8142 ft | 306 kts | 155° |
| 2026-04-23 02:06 | -41.31370 | 147.05027 | 7431 ft | 301 kts | 155° |
| 2026-04-23 02:07 | -41.33214 | 147.06324 | 6681 ft | 299 kts | 155° |
| 2026-04-23 02:07 | -41.35046 | 147.07613 | 5942 ft | 296 kts | 155° |
| 2026-04-23 02:07 | -41.36849 | 147.08886 | 5484 ft | 293 kts | 154° |
| 2026-04-23 02:07 | -41.38667 | 147.10142 | 5007 ft | 295 kts | 159° |
| 2026-04-23 02:08 | -41.40590 | 147.11022 | 4528 ft | 290 kts | 168° |
| 2026-04-23 02:08 | -41.42555 | 147.11598 | 4059 ft | 291 kts | 171° |
| 2026-04-23 02:08 | -41.44559 | 147.12100 | 3570 ft | 296 kts | 172° |
| 2026-04-23 02:08 | -41.46596 | 147.12479 | 3306 ft | 291 kts | 175° |
| 2026-04-23 02:09 | -41.48572 | 147.12742 | 3157 ft | 283 kts | 176° |
| 2026-04-23 02:09 | -41.50529 | 147.12959 | 2868 ft | 280 kts | 177° |
| 2026-04-23 02:09 | -41.52458 | 147.13119 | 2709 ft | 274 kts | 177° |
| 2026-04-23 02:09 | -41.54357 | 147.13293 | 2650 ft | 272 kts | 175° |
| 2026-04-23 02:10 | -41.56246 | 147.13590 | 2813 ft | 274 kts | 172° |
| 2026-04-23 02:10 | -41.58126 | 147.14090 | 2804 ft | 276 kts | 166° |
| 2026-04-23 02:10 | -41.59978 | 147.14822 | 2602 ft | 279 kts | 162° |
| 2026-04-23 02:10 | -41.61757 | 147.15776 | 2467 ft | 272 kts | 155° |
| 2026-04-23 02:11 | -41.63407 | 147.16978 | 2304 ft | 267 kts | 147° |
| 2026-04-23 02:11 | -41.64813 | 147.18409 | 2143 ft | 243 kts | 132° |
| 2026-04-23 02:11 | -41.65589 | 147.20248 | 2120 ft | 221 kts | 97° |
| 2026-04-23 02:11 | -41.65315 | 147.22104 | 2227 ft | 193 kts | 47° |
| 2026-04-23 02:12 | -41.64354 | 147.23159 | 2205 ft | 170 kts | 28° |
| 2026-04-23 02:12 | -41.63377 | 147.23930 | 2105 ft | 161 kts | 24° |
| 2026-04-23 02:12 | -41.62402 | 147.24556 | 1985 ft | 150 kts | 17° |
| 2026-04-23 02:12 | -41.61415 | 147.24946 | 1839 ft | 149 kts | 7° |
| 2026-04-23 02:13 | -41.60393 | 147.24983 | 1711 ft | 146 kts | 351° |
| 2026-04-23 02:13 | -41.59392 | 147.24714 | 1527 ft | 147 kts | 346° |
| 2026-04-23 02:13 | -41.58417 | 147.24323 | 1410 ft | 141 kts | 336° |
| 2026-04-23 02:13 | -41.57564 | 147.23719 | 1228 ft | 136 kts | 331° |
| 2026-04-23 02:14 | -41.56795 | 147.23051 | 1013 ft | 133 kts | 327° |
| 2026-04-23 02:14 | -41.56002 | 147.22382 | 839 ft | 134 kts | 329° |
| 2026-04-23 02:14 | -41.55234 | 147.21730 | 645 ft | 132 kts | 326° |
| 2026-04-23 02:14 | -41.54528 | 147.21121 | 593 ft | 100 kts | 327° |
| 2026-04-23 02:15 | -41.54040 | 147.20670 | 590 ft | 18 kts | 282° |
| 2026-04-23 02:15 | -41.54089 | 147.20564 | 584 ft | 13 kts | 189° |
| 2026-04-23 02:15 | -41.54165 | 147.20611 | 584 ft | 11 kts | 149° |
| 2026-04-23 02:16 | -41.54231 | 147.20668 | 584 ft | 7 kts | 146° |
| 2026-04-23 02:16 | -41.54252 | 147.20686 | 584 ft | 0 kts | 153° |
| 2026-04-23 02:16 | -41.54263 | 147.20679 | 584 ft | 3 kts | 206° |
| 2026-04-23 02:16 | -41.54264 | 147.20673 | 584 ft | 0 kts | 245° |
| 2026-04-23 02:17 | -41.54266 | 147.20664 | 584 ft | 2 kts | 251° |
| 2026-04-23 02:17 | -41.54268 | 147.20649 | 583 ft | 0 kts | 264° |
| 2026-04-23 02:17 | -41.54267 | 147.20647 | 583 ft | 0 kts | 285° |
| 2026-04-23 02:17 | -41.54265 | 147.20642 | 583 ft | 0 kts | 291° |